Time;durP1;ratioP1;P1;durP2;ratioP2;P2;SDS_P1;SDS_P2;PMS_P1;PMS_P2;Temp;Humidity;BMP_temperature;BMP_pressure;BME280_temperature;BME280_humidity;BME280_pressure;Samples;Min_cycle;Max_cycle;Signal;HPM_P1;HPM_P2
2022/08/14 00:00:00;;;;;;;5.15;3.10;;;;;;;20.14;83.49;100090.94;4947277;28;20035;-67
2022/08/14 00:02:26;;;;;;;5.60;2.97;;;;;;;20.08;84.39;100083.50;4951702;28;20062;-67
2022/08/14 00:04:51;;;;;;;4.72;2.95;;;;;;;20.08;85.69;100075.50;4950043;28;20097;-67
2022/08/14 00:07:16;;;;;;;8.07;2.67;;;;;;;19.99;86.74;100063.06;4951551;28;20118;-67
2022/08/14 00:09:42;;;;;;;4.72;2.67;;;;;;;19.84;86.17;100053.81;4951326;28;20031;-67
2022/08/14 00:12:08;;;;;;;5.55;2.85;;;;;;;19.88;87.29;100073.88;4950868;28;20027;-67
2022/08/14 00:14:34;;;;;;;4.78;2.97;;;;;;;19.62;88.41;100041.66;4934111;28;20023;-67
2022/08/14 00:16:59;;;;;;;7.03;3.40;;;;;;;19.72;88.71;100060.31;4939025;28;20040;-67
2022/08/14 00:19:25;;;;;;;6.38;3.00;;;;;;;19.58;89.68;100068.75;4951854;28;20041;-67
2022/08/14 00:21:50;;;;;;;9.15;3.03;;;;;;;19.40;91.61;100052.59;4951752;28;20031;-67
2022/08/14 00:24:19;;;;;;;4.47;2.88;;;;;;;19.28;93.94;100043.91;5017081;28;20032;-66
2022/08/14 00:26:45;;;;;;;4.93;3.42;;;;;;;19.33;95.18;100054.97;4950300;28;20033;-67
2022/08/14 00:29:10;;;;;;;4.43;2.67;;;;;;;19.31;95.79;100050.78;4949949;28;20027;-67
2022/08/14 00:31:36;;;;;;;9.57;3.50;;;;;;;19.23;96.55;100040.00;4951410;28;20093;-67
2022/08/14 00:34:02;;;;;;;4.10;2.92;;;;;;;19.15;97.56;100040.69;4951538;28;20031;-67
2022/08/14 00:36:27;;;;;;;3.95;2.60;;;;;;;19.03;99.08;100036.47;4937645;28;20135;-67
2022/08/14 00:38:52;;;;;;;6.43;3.42;;;;;;;19.03;100.00;100044.47;4954523;28;20541;-67
2022/08/14 00:41:18;;;;;;;5.80;3.75;;;;;;;18.99;100.00;100077.72;4954849;28;20440;-67
2022/08/14 00:43:44;;;;;;;5.32;3.05;;;;;;;18.98;100.00;100041.38;4954408;28;20077;-67
2022/08/14 00:46:10;;;;;;;4.88;3.22;;;;;;;19.05;100.00;100042.53;4954110;29;20041;-67
2022/08/14 00:48:36;;;;;;;5.57;3.45;;;;;;;18.86;100.00;100006.06;4954318;28;20481;-67
2022/08/14 00:51:05;;;;;;;5.07;3.33;;;;;;;19.16;99.96;100039.69;4953415;28;20114;-67
2022/08/14 00:53:30;;;;;;;4.45;2.97;;;;;;;19.24;100.00;100036.34;4952571;28;20106;-67
2022/08/14 00:55:56;;;;;;;4.72;3.08;;;;;;;19.16;100.00;100015.72;4963644;28;20110;-67
2022/08/14 00:58:32;;;;;;;5.32;3.13;;;;;;;19.30;100.00;100033.94;4947925;28;20054;-67
2022/08/14 01:01:09;;;;;;;5.90;3.75;;;;;;;19.29;100.00;100021.63;4954210;29;20038;-68
2022/08/14 01:03:38;;;;;;;7.53;3.00;;;;;;;19.17;100.00;100014.75;4947065;28;21717;-67
2022/08/14 01:06:05;;;;;;;5.22;3.17;;;;;;;19.24;100.00;100023.88;4951458;28;20059;-67
2022/08/14 01:08:30;;;;;;;9.63;3.88;;;;;;;18.78;100.00;99955.34;4954509;28;20035;-67
2022/08/14 01:10:57;;;;;;;6.53;3.10;;;;;;;19.02;100.00;100028.63;4942102;28;20039;-67
2022/08/14 01:13:32;;;;;;;5.10;3.05;;;;;;;18.89;100.00;100028.91;4953767;28;20027;-67
2022/08/14 01:16:00;;;;;;;7.70;2.75;;;;;;;18.81;100.00;100020.78;4953929;28;20042;-67
2022/08/14 01:21:14;;;;;;;4.47;2.90;;;;;;;18.71;100.00;100027.91;4941949;29;20043;-67
2022/08/14 01:23:52;;;;;;;5.82;3.35;;;;;;;18.53;100.00;100026.88;4953315;28;20035;-67
2022/08/14 01:26:22;;;;;;;5.38;3.47;;;;;;;18.20;100.00;100007.56;4945439;28;20046;-67
2022/08/14 01:28:50;;;;;;;4.50;3.35;;;;;;;18.25;100.00;100025.81;4934749;28;20074;-67
2022/08/14 01:31:17;;;;;;;7.90;2.85;;;;;;;18.19;100.00;100024.50;4949165;28;20110;-67
2022/08/14 01:33:46;;;;;;;4.30;3.10;;;;;;;18.18;100.00;100032.63;4947136;28;20086;-67
2022/08/14 01:36:14;;;;;;;5.30;3.03;;;;;;;18.14;100.00;100029.41;4950939;28;20027;-67
2022/08/14 01:38:41;;;;;;;4.30;3.30;;;;;;;17.93;100.00;100002.00;4953113;29;20024;-67
2022/08/14 01:41:12;;;;;;;4.47;2.53;;;;;;;18.00;100.00;100020.94;4954131;28;20092;-67
2022/08/14 01:43:48;;;;;;;4.78;3.20;;;;;;;17.92;100.00;100013.59;4951668;28;20055;-66
2022/08/14 01:46:15;;;;;;;7.85;3.10;;;;;;;17.91;100.00;100011.94;4953439;28;20031;-67
2022/08/14 01:48:43;;;;;;;5.47;3.25;;;;;;;17.90;100.00;100004.94;4953168;28;20028;-67
2022/08/14 01:51:09;;;;;;;5.57;3.22;;;;;;;17.88;100.00;100008.72;4953533;28;20425;-67
2022/08/14 01:53:35;;;;;;;4.72;2.83;;;;;;;17.77;100.00;99999.00;4953418;28;20104;-67
2022/08/14 01:56:03;;;;;;;13.30;2.85;;;;;;;17.83;100.00;99999.31;4953737;28;20119;-67
2022/08/14 01:58:29;;;;;;;7.00;2.95;;;;;;;17.84;100.00;100000.97;4952184;28;20105;-67
2022/08/14 02:00:55;;;;;;;5.07;2.70;;;;;;;17.84;100.00;100000.16;4953165;28;20493;-67
2022/08/14 02:03:22;;;;;;;4.82;2.90;;;;;;;17.85;100.00;99999.16;4953261;28;20392;-66
2022/08/14 02:05:48;;;;;;;6.07;2.65;;;;;;;17.87;100.00;99999.88;4953046;28;20034;-67
2022/08/14 02:08:14;;;;;;;3.78;2.65;;;;;;;17.60;100.00;99957.09;4949605;29;20063;-67
2022/08/14 02:10:40;;;;;;;4.05;2.60;;;;;;;17.86;100.00;99998.19;4950641;28;20058;-67
2022/08/14 02:13:07;;;;;;;5.00;2.60;;;;;;;17.81;100.00;99995.13;4953531;28;20023;-68
2022/08/14 02:15:33;;;;;;;4.20;2.72;;;;;;;17.77;100.00;99999.00;4935955;28;20026;-68
2022/08/14 02:18:03;;;;;;;7.38;2.75;;;;;;;17.74;100.00;99999.28;4952484;29;20035;-67
2022/08/14 02:20:32;;;;;;;3.40;2.05;;;;;;;17.72;100.00;99999.38;4952195;28;20564;-68
2022/08/14 02:23:01;;;;;;;4.53;2.60;;;;;;;17.72;100.00;99998.53;4941715;28;20110;-68
2022/08/14 02:25:27;;;;;;;6.95;3.20;;;;;;;17.72;100.00;99995.88;4953152;28;20031;-68
2022/08/14 02:27:55;;;;;;;4.40;3.00;;;;;;;17.71;100.00;99996.88;4930843;29;20114;-68
2022/08/14 02:30:25;;;;;;;3.95;2.50;;;;;;;17.68;100.00;99994.47;4945573;28;20023;-68
2022/08/14 02:32:51;;;;;;;3.97;2.20;;;;;;;17.70;100.00;99997.84;4947935;28;20028;-68
2022/08/14 02:35:17;;;;;;;5.38;3.05;;;;;;;17.11;100.00;99894.84;4944362;28;20035;-68
2022/08/14 02:37:43;;;;;;;5.25;3.00;;;;;;;17.65;100.00;99984.94;4952908;28;20035;-68
2022/08/14 02:40:09;;;;;;;5.25;2.35;;;;;;;17.57;100.00;99986.59;4952216;28;20066;-68
2022/08/14 02:42:34;;;;;;;4.20;2.65;;;;;;;17.48;100.00;99982.00;4950905;28;20058;-68
2022/08/14 02:44:59;;;;;;;3.88;2.55;;;;;;;17.40;100.00;99971.22;4951088;28;20459;-68
2022/08/14 02:47:27;;;;;;;3.90;2.38;;;;;;;17.33;100.00;99969.09;4941727;28;20026;-68
2022/08/14 02:49:53;;;;;;;5.95;2.38;;;;;;;17.35;100.00;99969.78;4941307;28;20028;-68
2022/08/14 02:52:18;;;;;;;5.57;2.45;;;;;;;17.31;100.00;99964.84;4952657;29;20031;-68
2022/08/14 02:54:44;;;;;;;4.65;2.25;;;;;;;16.87;100.00;99883.66;4950693;28;20043;-68
2022/08/14 02:57:10;;;;;;;4.68;2.60;;;;;;;17.38;100.00;99960.69;4952653;28;20079;-68
2022/08/14 02:59:38;;;;;;;4.65;2.55;;;;;;;17.40;100.00;99963.25;4952582;28;20078;-68
2022/08/14 03:02:03;;;;;;;6.22;3.05;;;;;;;17.40;100.00;99963.25;5016373;28;20388;-68
2022/08/14 03:04:29;;;;;;;4.45;2.55;;;;;;;17.29;100.00;99945.56;4952923;28;20031;-68
2022/08/14 03:06:55;;;;;;;5.38;3.20;;;;;;;17.18;100.00;99922.56;4938056;28;20085;-67
2022/08/14 03:09:21;;;;;;;5.30;2.42;;;;;;;17.12;100.00;99917.78;4916161;29;20186;-68
2022/08/14 03:11:46;;;;;;;5.88;3.22;;;;;;;17.08;100.00;99929.63;4951966;28;20097;-68
2022/08/14 03:14:12;;;;;;;11.20;2.75;;;;;;;17.12;100.00;99956.75;4949940;28;20524;-68
2022/08/14 03:16:39;;;;;;;5.63;2.95;;;;;;;17.02;100.00;99954.03;4942022;28;20039;-67
2022/08/14 03:19:08;;;;;;;6.03;2.78;;;;;;;16.92;100.00;99946.97;4920588;28;20149;-68
2022/08/14 03:21:35;;;;;;;5.70;2.60;;;;;;;16.85;100.00;99959.91;4951690;28;20106;-68
2022/08/14 03:24:11;;;;;;;5.03;2.92;;;;;;;16.76;100.00;99955.38;4946974;28;20496;-68
2022/08/14 03:26:42;;;;;;;5.43;2.90;;;;;;;16.65;100.00;99955.41;4932976;29;20545;-68
2022/08/14 03:29:11;;;;;;;4.65;2.72;;;;;;;16.59;100.00;99955.94;4951976;29;20038;-68
2022/08/14 03:31:39;;;;;;;4.88;2.97;;;;;;;16.51;100.00;99947.72;4952407;28;20015;-68
2022/08/14 03:34:06;;;;;;;4.60;2.58;;;;;;;16.48;100.00;99953.28;4952015;28;20035;-68
2022/08/14 03:36:31;;;;;;;4.57;2.70;;;;;;;16.45;100.00;99953.53;4944038;28;20046;-68
2022/08/14 03:38:58;;;;;;;5.22;3.13;;;;;;;16.38;100.00;99947.03;4933869;28;20028;-68
2022/08/14 03:41:25;;;;;;;5.03;2.80;;;;;;;16.32;100.00;99949.19;4935292;28;20067;-68
2022/08/14 03:43:57;;;;;;;6.18;2.97;;;;;;;16.27;100.00;99946.09;4932642;28;20042;-68
2022/08/14 03:46:26;;;;;;;4.28;2.83;;;;;;;16.29;100.00;99952.09;4941707;28;20370;-68
2022/08/14 03:48:53;;;;;;;6.60;3.13;;;;;;;16.26;100.00;99949.69;4951925;28;20051;-68
2022/08/14 03:51:19;;;;;;;6.63;2.50;;;;;;;16.16;100.00;99959.34;4934403;28;20027;-68
2022/08/14 03:53:45;;;;;;;4.90;2.78;;;;;;;16.12;100.00;99955.25;4902706;28;20028;-68
2022/08/14 03:56:14;;;;;;;3.63;2.50;;;;;;;16.16;100.00;99954.06;4927163;28;20484;-68
2022/08/14 03:58:44;;;;;;;4.82;2.67;;;;;;;16.15;100.00;99952.41;4951624;28;20070;-68
2022/08/14 04:01:10;;;;;;;3.83;2.60;;;;;;;16.10;100.00;99941.31;4942387;28;20046;-68
2022/08/14 04:03:35;;;;;;;5.72;3.35;;;;;;;16.02;100.00;99938.41;4947906;29;20470;-68
2022/08/14 04:06:01;;;;;;;5.82;2.95;;;;;;;16.02;100.00;99943.72;4951574;28;20035;-68
2022/08/14 04:08:26;;;;;;;4.80;3.13;;;;;;;16.01;100.00;99938.56;4923199;28;20873;-68
2022/08/14 04:10:52;;;;;;;5.50;2.72;;;;;;;15.88;100.00;99938.69;4928725;29;20057;-68
2022/08/14 04:13:17;;;;;;;4.50;3.08;;;;;;;15.74;100.00;99931.00;4954190;28;20034;-69
2022/08/14 04:15:46;;;;;;;4.65;2.92;;;;;;;15.67;100.00;99924.47;4954607;28;20059;-68
2022/08/14 04:18:12;;;;;;;6.85;2.90;;;;;;;15.72;100.00;99931.09;4947275;28;20492;-68
2022/08/14 04:20:39;;;;;;;10.23;3.05;;;;;;;15.76;100.00;99929.03;4941173;28;20540;-69
2022/08/14 04:23:05;;;;;;;6.03;3.17;;;;;;;15.68;100.00;99920.88;4944610;28;20500;-69
2022/08/14 04:25:35;;;;;;;5.28;3.15;;;;;;;15.57;100.00;99912.94;4953198;28;20531;-69
2022/08/14 04:28:02;;;;;;;5.15;2.92;;;;;;;15.54;100.00;99914.03;4938377;29;20038;-69
2022/08/14 04:30:29;;;;;;;6.80;3.30;;;;;;;15.47;100.00;99906.63;4954519;28;20103;-69
2022/08/14 04:32:56;;;;;;;7.07;3.63;;;;;;;15.48;100.00;99908.31;5018686;28;20122;-68
2022/08/14 04:35:21;;;;;;;5.30;3.13;;;;;;;15.48;100.00;99909.19;4942991;28;20077;-69
2022/08/14 04:45:59;;;;;;;4.38;2.60;;;;;;;15.63;100.00;99892.09;4952098;28;20054;-69
2022/08/14 04:48:26;;;;;;;6.82;3.22;;;;;;;15.72;100.00;99896.66;4944291;28;20023;-69
2022/08/14 04:50:52;;;;;;;6.72;3.75;;;;;;;15.55;100.00;99862.72;4954669;28;20110;-69
2022/08/14 04:53:21;;;;;;;5.93;3.35;;;;;;;15.75;100.00;99892.91;4954070;28;20094;-69
2022/08/14 04:55:48;;;;;;;4.50;2.85;;;;;;;15.73;100.00;99884.25;4954023;28;20047;-69
2022/08/14 04:58:23;;;;;;;6.80;3.42;;;;;;;15.85;100.00;99899.16;4954017;28;20031;-69
2022/08/14 05:00:50;;;;;;;5.78;3.08;;;;;;;15.80;100.00;99877.50;4944709;28;20086;-69
2022/08/14 05:03:20;;;;;;;4.63;3.08;;;;;;;15.98;100.00;99889.28;4949704;28;20058;-69
2022/08/14 05:05:51;;;;;;;4.65;2.95;;;;;;;16.12;100.00;99889.00;4921344;28;20040;-69
2022/08/14 05:08:17;;;;;;;3.95;2.55;;;;;;;16.22;100.00;99883.81;4949426;28;20038;-69
2022/08/14 05:10:45;;;;;;;4.57;2.83;;;;;;;16.29;100.00;99883.16;4952576;28;20066;-68
2022/08/14 05:13:12;;;;;;;5.03;3.10;;;;;;;16.39;100.00;99888.56;4938599;28;20036;-68
2022/08/14 05:15:39;;;;;;;4.47;2.60;;;;;;;16.47;100.00;99898.53;4938416;28;20036;-68
2022/08/14 05:18:11;;;;;;;5.95;2.97;;;;;;;16.55;100.00;99901.41;4941629;28;20024;-68
2022/08/14 05:20:39;;;;;;;7.90;3.15;;;;;;;16.66;100.00;99904.88;4937656;28;20452;-68
2022/08/14 05:23:06;;;;;;;3.55;2.42;;;;;;;16.69;100.00;99882.56;4937810;28;20022;-68
2022/08/14 05:25:32;;;;;;;4.95;2.60;;;;;;;16.86;100.00;99898.72;4950844;28;20439;-68
2022/08/14 05:28:05;;;;;;;5.57;2.80;;;;;;;16.98;100.00;99898.69;4949689;28;20039;-68
2022/08/14 05:30:31;;;;;;;4.87;3.20;;;;;;;17.08;100.00;99904.88;4953589;29;20049;-68
2022/08/14 05:32:56;;;;;;;6.05;3.00;;;;;;;17.18;100.00;99901.31;4949420;28;20275;-68
2022/08/14 05:35:22;;;;;;;5.80;2.90;;;;;;;17.26;100.00;99893.56;4931627;28;20212;-68
2022/08/14 05:37:48;;;;;;;6.82;2.97;;;;;;;17.38;100.00;99891.66;4952271;28;20043;-68
2022/08/14 05:40:13;;;;;;;4.25;2.55;;;;;;;17.40;100.00;99881.75;4950962;28;20031;-67
2022/08/14 05:42:39;;;;;;;4.97;2.67;;;;;;;17.56;100.00;99894.56;4953023;29;20067;-67
2022/08/14 05:45:05;;;;;;;4.65;2.72;;;;;;;17.41;100.00;99862.16;4953694;28;20027;-68
2022/08/14 05:47:31;;;;;;;5.03;2.65;;;;;;;17.72;100.00;99900.22;4949559;29;20895;-67
2022/08/14 05:49:57;;;;;;;6.75;3.28;;;;;;;17.77;100.00;99890.88;4953327;28;20031;-67
2022/08/14 05:52:22;;;;;;;6.43;2.60;;;;;;;17.86;100.00;99886.56;4953199;28;20068;-68
2022/08/14 05:54:48;;;;;;;4.05;2.90;;;;;;;17.95;100.00;99888.38;4941283;28;20127;-68
2022/08/14 05:57:13;;;;;;;4.28;2.83;;;;;;;17.99;100.00;99887.16;4940840;28;20059;-68
2022/08/14 05:59:40;;;;;;;4.70;3.05;;;;;;;18.04;100.00;99884.09;4949177;28;20066;-67
2022/08/14 06:02:07;;;;;;;4.40;2.58;;;;;;;18.04;100.00;99863.66;4952259;28;20437;-68
2022/08/14 06:04:32;;;;;;;5.55;2.70;;;;;;;18.10;100.00;99863.09;4952644;28;20023;-68
2022/08/14 06:06:58;;;;;;;5.78;2.35;;;;;;;18.31;100.00;99877.13;4950539;28;20039;-68
2022/08/14 06:09:23;;;;;;;4.43;2.67;;;;;;;18.27;100.00;99849.13;4930887;28;20105;-67
2022/08/14 06:11:48;;;;;;;4.72;3.08;;;;;;;18.47;100.00;99870.41;4952248;28;20635;-68
2022/08/14 06:14:14;;;;;;;3.33;2.33;;;;;;;18.55;100.00;99862.59;4941869;28;20107;-67
2022/08/14 06:16:41;;;;;;;9.27;2.63;;;;;;;18.57;100.00;99847.31;4938963;28;20027;-68
2022/08/14 06:19:06;;;;;;;4.47;3.03;;;;;;;18.71;100.00;99858.38;4944162;28;20034;-68
2022/08/14 06:21:32;;;;;;;4.95;2.80;;;;;;;18.81;100.00;99858.38;4937627;28;20027;-68
2022/08/14 06:23:57;;;;;;;4.32;2.90;;;;;;;18.87;100.00;99858.63;4952671;28;20707;-68
2022/08/14 06:26:22;;;;;;;4.05;2.65;;;;;;;19.01;100.00;99859.16;4952740;28;20118;-68
2022/08/14 06:28:49;;;;;;;10.45;3.30;;;;;;;18.79;100.00;99807.91;4952533;28;20042;-68
2022/08/14 06:31:15;;;;;;;15.73;3.42;;;;;;;19.18;100.00;99851.28;4944572;29;20484;-68
2022/08/14 06:33:40;;;;;;;6.47;2.63;;;;;;;19.28;100.00;99852.09;4946552;28;20114;-68
2022/08/14 06:36:06;;;;;;;5.40;2.88;;;;;;;19.39;100.00;99854.56;4950625;28;20636;-67
2022/08/14 06:38:31;;;;;;;6.57;3.08;;;;;;;19.47;100.00;99853.03;4936313;28;20023;-68
2022/08/14 06:40:56;;;;;;;4.85;2.78;;;;;;;19.55;100.00;99850.47;4938962;28;20487;-67
2022/08/14 06:43:22;;;;;;;5.57;2.80;;;;;;;19.61;100.00;99842.72;4955639;28;20059;-68
2022/08/14 06:45:48;;;;;;;4.13;2.88;;;;;;;19.76;100.00;99848.41;4944825;29;20065;-68
2022/08/14 06:48:17;;;;;;;4.43;2.97;;;;;;;19.88;100.00;99848.03;4947225;28;20102;-68
2022/08/14 06:50:44;;;;;;;5.53;3.65;;;;;;;20.00;100.00;99851.34;4949005;28;20054;-68
2022/08/14 06:53:10;;;;;;;5.45;3.25;;;;;;;20.12;100.00;99850.13;4932319;28;20066;-68
2022/08/14 06:55:36;;;;;;;4.38;2.72;;;;;;;20.10;100.00;99844.13;4941088;28;20470;-67
2022/08/14 06:58:02;;;;;;;8.65;4.10;;;;;;;20.31;100.00;99858.00;4938590;28;20038;-68
2022/08/14 07:00:28;;;;;;;5.72;3.08;;;;;;;20.40;100.00;99856.28;4932658;28;20036;-68
2022/08/14 07:05:45;;;;;;;4.55;3.10;;;;;;;20.57;100.00;99851.91;4931740;28;20054;-68
2022/08/14 07:08:21;;;;;;;5.40;3.00;;;;;;;20.67;100.00;99852.66;4993477;28;20130;-68
2022/08/14 07:10:49;;;;;;;4.38;3.40;;;;;;;20.60;100.00;99827.56;4948047;28;20379;-68
2022/08/14 07:13:17;;;;;;;4.95;2.75;;;;;;;20.83;100.00;99842.94;4947961;28;20055;-68
2022/08/14 07:15:45;;;;;;;7.53;3.08;;;;;;;20.86;100.00;99842.63;4930627;28;21447;-68
2022/08/14 07:18:12;;;;;;;3.63;2.55;;;;;;;20.97;100.00;99844.22;4934513;28;20023;-68
2022/08/14 07:20:39;;;;;;;5.35;3.35;;;;;;;20.77;100.00;99806.19;4942930;28;20023;-68
2022/08/14 07:23:05;;;;;;;4.55;2.60;;;;;;;21.17;100.00;99852.88;4948560;28;20042;-68
2022/08/14 07:25:31;;;;;;;6.68;3.28;;;;;;;21.24;100.00;99846.75;4948617;29;20537;-67
2022/08/14 07:27:57;;;;;;;5.65;3.20;;;;;;;21.32;100.00;99844.16;4950427;28;20127;-68
2022/08/14 07:30:23;;;;;;;5.10;3.50;;;;;;;21.21;100.00;99808.81;4941799;28;20034;-71
2022/08/14 07:32:48;;;;;;;5.03;2.80;;;;;;;21.51;100.00;99842.22;4932005;28;20028;-68
2022/08/14 07:35:14;;;;;;;4.13;3.08;;;;;;;21.39;100.00;99818.41;4927066;28;20035;-68
2022/08/14 07:37:40;;;;;;;5.32;3.45;;;;;;;21.67;100.00;99845.78;4935085;28;20040;-68
2022/08/14 07:40:05;;;;;;;5.95;3.83;;;;;;;21.73;99.72;99855.03;4942365;28;20058;-68
2022/08/14 07:42:31;;;;;;;6.43;3.90;;;;;;;21.76;100.00;99838.66;4950024;28;20442;-68
2022/08/14 07:44:57;;;;;;;4.90;3.35;;;;;;;21.88;100.00;99846.22;4950554;28;20038;-67
2022/08/14 07:47:23;;;;;;;4.90;3.20;;;;;;;21.98;99.19;99850.59;4949560;28;20105;-67
2022/08/14 07:50:13;;;;;;;10.00;3.40;;;;;;;22.05;97.68;99849.78;4950516;28;20042;-67
2022/08/14 07:52:39;;;;;;;4.63;2.88;;;;;;;22.15;97.24;99842.47;4951950;28;20595;-68
2022/08/14 07:55:05;;;;;;;5.55;3.45;;;;;;;22.16;95.66;99828.09;4936400;28;20477;-68
2022/08/14 07:57:31;;;;;;;6.60;2.97;;;;;;;22.30;95.55;99830.13;4937470;28;20034;-68
2022/08/14 07:59:56;;;;;;;3.88;2.55;;;;;;;22.42;95.06;99826.09;4946168;28;20031;-68
2022/08/14 08:02:22;;;;;;;4.88;3.40;;;;;;;22.53;94.73;99830.28;4950389;28;20043;-68
2022/08/14 08:04:51;;;;;;;6.28;3.45;;;;;;;22.66;91.19;99824.41;4959890;28;20039;-68
2022/08/14 08:07:16;;;;;;;6.13;3.63;;;;;;;22.78;91.49;99821.25;4950530;28;20023;-68
2022/08/14 08:09:44;;;;;;;6.18;3.38;;;;;;;22.58;91.89;99773.53;4933535;28;20028;-68
2022/08/14 08:12:10;;;;;;;4.05;2.75;;;;;;;22.99;90.65;99825.25;4938831;28;20074;-68
2022/08/14 08:14:36;;;;;;;5.32;3.25;;;;;;;22.89;89.77;99801.31;5001062;28;20043;-68
2022/08/14 08:17:02;;;;;;;4.80;2.75;;;;;;;23.20;86.03;99831.75;4938761;28;20063;-67
2022/08/14 08:19:28;;;;;;;5.88;3.17;;;;;;;23.25;86.94;99824.00;4923062;28;20039;-68
2022/08/14 08:21:55;;;;;;;4.43;2.85;;;;;;;23.34;86.61;99830.19;4942386;28;20042;-68
2022/08/14 08:24:20;;;;;;;5.03;3.63;;;;;;;23.51;83.99;99841.75;4953260;28;20046;-68
2022/08/14 08:26:46;;;;;;;4.70;3.38;;;;;;;23.55;83.08;99826.97;4950220;28;20503;-68
2022/08/14 08:29:18;;;;;;;5.07;2.95;;;;;;;23.64;83.72;99831.28;4934232;29;20023;-68
2022/08/14 08:31:51;;;;;;;7.00;3.03;;;;;;;23.82;83.77;99830.03;4950372;28;20037;-68
2022/08/14 08:34:17;;;;;;;4.40;2.65;;;;;;;23.87;82.66;99816.06;4944312;28;20031;-68
2022/08/14 08:36:43;;;;;;;4.63;2.60;;;;;;;23.96;82.25;99806.13;4938127;28;20024;-68
2022/08/14 08:39:09;;;;;;;4.55;2.75;;;;;;;24.19;81.00;99821.28;4945016;28;20031;-69
2022/08/14 08:41:39;;;;;;;5.25;3.20;;;;;;;24.32;80.63;99824.22;4943840;28;20497;-68
2022/08/14 08:44:05;;;;;;;4.20;2.38;;;;;;;24.45;80.34;99806.66;4946625;28;20032;-68
2022/08/14 08:46:30;;;;;;;9.57;2.92;;;;;;;24.55;80.11;99812.63;5010117;28;20370;-68
2022/08/14 08:48:56;;;;;;;5.72;3.05;;;;;;;24.66;78.29;99821.09;4949830;28;20043;-68
2022/08/14 08:51:29;;;;;;;5.13;3.13;;;;;;;24.85;78.04;99827.81;4948648;28;20110;-68
2022/08/14 08:54:04;;;;;;;4.03;2.88;;;;;;;24.98;77.24;99821.81;5014373;28;20031;-68
2022/08/14 08:56:36;;;;;;;5.88;3.30;;;;;;;25.11;77.41;99816.66;4935686;28;20047;-68
2022/08/14 08:59:03;;;;;;;4.72;3.25;;;;;;;25.21;75.50;99812.66;4947627;28;20039;-68
2022/08/14 09:01:29;;;;;;;6.95;3.30;;;;;;;25.33;75.28;99811.19;4952965;28;20552;-68
2022/08/14 09:04:04;;;;;;;8.45;2.95;;;;;;;25.47;75.10;99817.59;4944157;28;20097;-67
2022/08/14 09:06:30;;;;;;;3.92;2.80;;;;;;;25.59;74.36;99799.97;4948260;28;20035;-67
2022/08/14 09:08:55;;;;;;;6.18;2.80;;;;;;;25.74;73.78;99797.25;4952910;28;20031;-67
2022/08/14 09:11:22;;;;;;;7.05;3.53;;;;;;;25.88;70.77;99797.22;4945395;28;20039;-69
2022/08/14 09:13:51;;;;;;;6.47;3.40;;;;;;;26.05;71.15;99800.53;4950681;28;20032;-67
2022/08/14 09:16:21;;;;;;;6.40;3.25;;;;;;;26.17;71.83;99803.56;4937903;28;20059;-68
2022/08/14 09:18:46;;;;;;;6.28;3.33;;;;;;;26.23;69.09;99790.16;4937832;28;20534;-69
2022/08/14 09:21:12;;;;;;;6.05;3.00;;;;;;;26.33;68.91;99787.97;4947594;28;20042;-67
2022/08/14 09:23:37;;;;;;;11.05;2.95;;;;;;;26.41;68.31;99781.63;4954541;28;20038;-69
2022/08/14 09:26:02;;;;;;;4.40;2.85;;;;;;;26.55;67.82;99790.66;4942843;28;20033;-69
2022/08/14 09:28:28;;;;;;;4.22;3.10;;;;;;;26.63;68.31;99788.63;4952349;29;20028;-68
2022/08/14 09:30:55;;;;;;;4.75;2.88;;;;;;;26.63;66.36;99767.06;4953069;28;20023;-68
2022/08/14 09:33:33;;;;;;;8.80;3.72;;;;;;;26.85;67.06;99776.00;4941611;28;20035;-69
2022/08/14 09:36:16;;;;;;;9.57;3.17;;;;;;;26.96;65.62;99775.44;4932455;28;20132;-67
2022/08/14 09:39:05;;;;;;;9.45;2.95;;;;;;;27.15;67.35;99779.28;4949383;28;20394;-68
2022/08/14 09:41:49;;;;;;;11.07;3.22;;;;;;;27.32;67.48;99783.34;4964085;28;20099;-68
2022/08/14 09:44:46;;;;;;;4.63;2.90;;;;;;;27.50;66.85;99770.19;4944178;28;20085;-68
2022/08/14 09:47:13;;;;;;;5.03;2.88;;;;;;;27.71;66.97;99766.53;4944218;28;20055;-68
2022/08/14 09:49:41;;;;;;;4.93;3.10;;;;;;;27.81;64.05;99756.16;4934250;28;20020;-68
2022/08/14 09:52:14;;;;;;;4.47;2.70;;;;;;;27.98;62.60;99762.84;4934746;28;20059;-66
2022/08/14 09:54:44;;;;;;;5.22;3.33;;;;;;;28.10;62.60;99766.66;4935417;28;20070;-67
2022/08/14 09:57:22;;;;;;;9.10;2.83;;;;;;;28.19;61.52;99762.69;4934981;28;20031;-67
2022/08/14 09:59:48;;;;;;;8.82;3.47;;;;;;;28.24;59.99;99746.72;5001577;28;20454;-68
2022/08/14 10:02:30;;;;;;;3.60;2.50;;;;;;;28.34;59.21;99752.53;4940760;28;20054;-68
2022/08/14 10:05:09;;;;;;;5.63;2.95;;;;;;;28.45;59.56;99752.97;4952468;28;20106;-68
2022/08/14 10:07:49;;;;;;;5.50;2.35;;;;;;;28.41;57.45;99726.34;4952545;28;20024;-69
2022/08/14 10:10:46;;;;;;;6.93;2.15;;;;;;;28.69;58.35;99750.50;4949367;28;20039;-68
2022/08/14 10:13:25;;;;;;;4.53;2.90;;;;;;;28.82;58.50;99741.53;4934513;28;20116;-68
2022/08/14 10:15:51;;;;;;;5.90;2.85;;;;;;;28.70;57.45;99716.97;4937477;28;20122;-68
2022/08/14 10:18:18;;;;;;;6.30;2.72;;;;;;;28.91;58.91;99740.25;4935892;28;20465;-68
2022/08/14 10:20:59;;;;;;;6.05;2.83;;;;;;;28.98;58.18;99727.53;4951625;29;20023;-68
2022/08/14 10:23:28;;;;;;;5.45;2.35;;;;;;;29.09;57.95;99726.91;4935383;28;20033;-68
2022/08/14 10:26:03;;;;;;;6.32;2.65;;;;;;;29.05;56.24;99728.34;4951983;28;20041;-68
2022/08/14 10:28:37;;;;;;;6.20;2.75;;;;;;;29.02;54.58;99711.72;4947834;28;20149;-68
2022/08/14 10:31:03;;;;;;;;;;;;;;;29.21;56.88;99727.03;4965079;28;20035;-68
2022/08/14 10:33:31;;;;;;;5.60;2.83;;;;;;;29.27;56.95;99720.81;4938974;28;20372;-68
2022/08/14 10:35:59;;;;;;;6.40;2.88;;;;;;;29.26;55.97;99720.00;4918379;28;20828;-68
2022/08/14 10:38:33;;;;;;;4.57;3.25;;;;;;;29.17;56.14;99701.44;4936730;28;20056;-68
2022/08/14 10:41:34;;;;;;;6.47;2.92;;;;;;;29.29;56.95;99724.16;4951686;28;20027;-68
2022/08/14 10:44:13;;;;;;;4.63;2.92;;;;;;;29.37;56.38;99719.31;4961083;28;20498;-68
2022/08/14 10:47:06;;;;;;;5.03;2.90;;;;;;;29.46;56.99;99714.50;4951949;29;20033;-67
2022/08/14 10:49:33;;;;;;;4.55;2.80;;;;;;;29.58;56.19;99707.34;4954110;28;20042;-68
2022/08/14 10:52:11;;;;;;;7.47;2.67;;;;;;;29.75;52.21;99704.94;4941527;28;20034;-69
2022/08/14 10:54:45;;;;;;;7.35;3.13;;;;;;;29.79;53.06;99703.47;4932370;28;20054;-68
2022/08/14 10:57:20;;;;;;;5.22;2.72;;;;;;;30.01;51.73;99691.28;4940797;28;20035;-68
2022/08/14 10:59:48;;;;;;;4.30;2.60;;;;;;;30.26;52.17;99683.97;4937938;28;20126;-68
2022/08/14 11:02:20;;;;;;;4.30;2.72;;;;;;;30.47;52.32;99685.50;4951768;29;20035;-66
2022/08/14 11:05:00;;;;;;;4.03;2.40;;;;;;;30.52;52.04;99682.91;4950960;28;20035;-69
2022/08/14 11:07:26;;;;;;;9.25;2.53;;;;;;;30.55;52.48;99682.50;4951859;28;20030;-66
2022/08/14 11:09:56;;;;;;;3.78;2.50;;;;;;;30.66;50.76;99678.19;4951535;28;20072;-67
2022/08/14 11:12:24;;;;;;;4.85;2.65;;;;;;;30.75;49.76;99676.88;4951063;28;20046;-66
2022/08/14 11:14:59;;;;;;;4.22;2.90;;;;;;;30.85;50.61;99656.31;4937703;28;20044;-68
2022/08/14 11:17:26;;;;;;;4.53;2.65;;;;;;;30.86;51.01;99638.94;4931590;28;20027;-68
2022/08/14 11:19:56;;;;;;;3.38;2.40;;;;;;;30.96;48.56;99648.47;4943554;28;20473;-68
2022/08/14 11:22:21;;;;;;;6.10;2.67;;;;;;;30.96;50.07;99651.16;4946202;28;20030;-67
2022/08/14 11:24:49;;;;;;;5.38;2.72;;;;;;;31.00;49.54;99665.94;5015062;28;20392;-68
2022/08/14 11:27:15;;;;;;;8.63;3.28;;;;;;;30.89;49.53;99662.91;4951803;28;20023;-68
2022/08/14 11:29:42;;;;;;;5.82;2.92;;;;;;;30.66;50.57;99656.50;4951216;28;20153;-67
2022/08/14 11:32:08;;;;;;;4.50;2.80;;;;;;;30.64;51.45;99650.47;4929651;28;20040;-68
2022/08/14 11:34:36;;;;;;;5.57;2.97;;;;;;;30.63;51.60;99651.53;4931578;28;20031;-68
2022/08/14 11:37:09;;;;;;;7.07;2.47;;;;;;;30.59;51.30;99644.88;4944164;28;20031;-67
2022/08/14 11:39:35;;;;;;;3.67;2.57;;;;;;;30.45;49.76;99643.38;4938222;28;20466;-68
2022/08/14 11:42:02;;;;;;;5.10;2.35;;;;;;;30.49;50.14;99639.13;4950261;28;20271;-67
2022/08/14 11:44:27;;;;;;;5.10;2.80;;;;;;;30.31;50.45;99578.41;4947596;29;20385;-67